Time;durP1;ratioP1;P1;durP2;ratioP2;P2;SDS_P1;SDS_P2;PMS_P1;PMS_P2;Temp;Humidity;BMP_temperature;BMP_pressure;BME280_temperature;BME280_humidity;BME280_pressure;Samples;Min_cycle;Max_cycle;Signal;HPM_P1;HPM_P2
2021/01/21 00:01:38;;;;;;;;;;;;;;;17.46;63.36;100276.06;4931759;29;863;-69
2021/01/21 00:04:10;;;;;;;;;;;;;;;17.47;63.45;100287.44;4915545;29;1277;-67
2021/01/21 00:06:39;;;;;;;;;;;;;;;17.44;63.74;100285.84;4931432;29;1910;-69
2021/01/21 00:09:06;;;;;;;;;;;;;;;17.43;63.38;100283.28;4932079;29;1229;-69
2021/01/21 00:11:32;;;;;;;;;;;;;;;17.39;63.63;100276.50;4931848;29;839;-67
2021/01/21 00:13:59;;;;;;;;;;;;;;;17.38;63.65;100278.31;4932166;29;1266;-68
2021/01/21 00:16:25;;;;;;;;;;;;;;;17.37;63.74;100273.97;4931729;29;977;-68
2021/01/21 00:18:51;;;;;;;;;;;;;;;17.38;63.76;100266.94;4932071;29;1263;-67
2021/01/21 00:21:18;;;;;;;;;;;;;;;17.36;63.64;100269.63;4931903;29;792;-68
2021/01/21 00:23:44;;;;;;;;;;;;;;;17.33;63.90;100267.19;4931903;29;1369;-68
2021/01/21 00:26:10;;;;;;;;;;;;;;;17.33;63.79;100263.69;4932010;29;1037;-68
2021/01/21 00:28:37;;;;;;;;;;;;;;;17.32;63.85;100256.75;4931495;29;1473;-67
2021/01/21 00:31:03;;;;;;;;;;;;;;;17.31;63.95;100255.06;4931768;29;865;-68
2021/01/21 00:33:29;;;;;;;;;;;;;;;17.29;63.97;100257.78;4931394;29;1301;-68
2021/01/21 00:35:56;;;;;;;;;;;;;;;17.30;63.83;100261.25;4931779;29;767;-68
2021/01/21 00:38:22;;;;;;;;;;;;;;;17.29;64.05;100262.19;4932803;29;1374;-66
2021/01/21 00:40:48;;;;;;;;;;;;;;;17.27;64.13;100254.38;4935457;29;870;-68
2021/01/21 00:43:14;;;;;;;;;;;;;;;17.29;63.99;100262.19;4935185;29;1340;-69
2021/01/21 00:45:41;;;;;;;;;;;;;;;17.25;63.96;100260.66;4935659;29;812;-69
2021/01/21 00:48:07;;;;;;;;;;;;;;;17.24;64.17;100270.34;4935281;29;1976;-69
2021/01/21 00:50:34;;;;;;;;;;;;;;;17.27;64.18;100266.69;4917631;29;1134;-67
2021/01/21 00:53:00;;;;;;;;;;;;;;;17.27;64.02;100274.59;4935157;29;1254;-68
2021/01/21 00:55:26;;;;;;;;;;;;;;;17.25;64.15;100265.94;4935008;29;827;-68
2021/01/21 00:57:53;;;;;;;;;;;;;;;17.24;64.09;100264.22;4935325;29;1387;-68
2021/01/21 01:00:19;;;;;;;;;;;;;;;17.22;64.12;100260.84;4935029;29;772;-68
2021/01/21 01:02:46;;;;;;;;;;;;;;;17.23;64.08;100258.16;4935047;29;1290;-68
2021/01/21 01:05:13;;;;;;;;;;;;;;;17.22;64.30;100263.47;4934818;29;847;-68
2021/01/21 01:07:49;;;;;;;;;;;;;;;17.22;64.23;100266.13;4917707;29;1907;-68
2021/01/21 01:10:15;;;;;;;;;;;;;;;17.22;64.29;100256.44;4917816;29;800;-68
2021/01/21 01:12:41;;;;;;;;;;;;;;;17.21;64.10;100253.88;4934726;29;1237;-70
2021/01/21 01:15:08;;;;;;;;;;;;;;;17.19;64.39;100258.41;4935142;29;799;-70
2021/01/21 01:17:35;;;;;;;;;;;;;;;17.20;64.13;100257.47;4934808;29;1352;-68
2021/01/21 01:20:03;;;;;;;;;;;;;;;17.20;64.26;100257.47;4934585;29;1085;-68
2021/01/21 01:22:29;;;;;;;;;;;;;;;17.17;64.14;100268.19;4934608;29;1274;-69
2021/01/21 01:24:56;;;;;;;;;;;;;;;17.19;64.21;100266.28;4933178;29;789;-69
2021/01/21 01:27:22;;;;;;;;;;;;;;;17.18;64.32;100260.19;4934112;29;1910;-69
2021/01/21 01:29:49;;;;;;;;;;;;;;;17.17;64.25;100262.91;4934348;29;835;-68
2021/01/21 01:32:16;;;;;;;;;;;;;;;17.16;64.28;100266.47;4917747;29;1169;-68
2021/01/21 01:34:43;;;;;;;;;;;;;;;17.15;64.35;100255.09;4917100;29;1285;-68
2021/01/21 01:37:11;;;;;;;;;;;;;;;17.16;64.38;100245.41;4934593;29;1214;-68
2021/01/21 01:39:37;;;;;;;;;;;;;;;17.14;64.40;100242.03;4934422;29;1212;-68
2021/01/21 01:42:10;;;;;;;;;;;;;;;17.06;64.43;100238.97;4916510;29;1213;-69
2021/01/21 01:44:36;;;;;;;;;;;;;;;17.15;64.36;100249.81;4932564;29;1204;-69
2021/01/21 01:47:03;;;;;;;;;;;;;;;17.14;64.49;100257.81;4934098;29;1976;-69
2021/01/21 01:49:29;;;;;;;;;;;;;;;17.15;64.43;100251.59;4933960;29;1188;-69
2021/01/21 01:51:55;;;;;;;;;;;;;;;17.13;64.51;100261.38;4916677;29;1211;-69
2021/01/21 01:54:22;;;;;;;;;;;;;;;17.12;64.49;100250.00;4933997;29;1360;-68
2021/01/21 01:56:48;;;;;;;;;;;;;;;17.12;64.61;100259.69;4934130;29;1162;-68
2021/01/21 01:59:15;;;;;;;;;;;;;;;17.11;64.60;100258.00;4934108;29;1246;-68
2021/01/21 02:01:42;;;;;;;;;;;;;;;17.10;64.58;100261.56;4932486;29;1198;-68
2021/01/21 02:04:09;;;;;;;;;;;;;;;17.09;64.57;100258.06;4934257;29;1231;-68
2021/01/21 02:06:36;;;;;;;;;;;;;;;17.10;64.59;100261.56;4934038;29;1911;-68
2021/01/21 02:09:02;;;;;;;;;;;;;;;17.09;64.59;100259.84;4934223;29;1308;-68
2021/01/21 02:11:47;;;;;;;;;;;;;;;17.08;64.61;100261.66;4934017;29;791;-68
2021/01/21 02:14:20;;;;;;;;;;;;;;;17.10;64.72;100267.69;4934013;29;1239;-69
2021/01/21 02:16:55;;;;;;;;;;;;;;;17.09;64.52;100271.22;4933920;29;1188;-69
2021/01/21 02:19:37;;;;;;;;;;;;;;;17.08;64.64;100276.59;4917066;29;1211;-69
2021/01/21 02:22:18;;;;;;;;;;;;;;;17.08;64.59;100269.56;4933819;29;1158;-69
2021/01/21 02:24:53;;;;;;;;;;;;;;;17.07;64.48;100267.00;4916761;29;1389;-70
2021/01/21 02:27:23;;;;;;;;;;;;;;;17.07;64.72;100267.00;4933559;29;1926;-69
2021/01/21 02:29:49;;;;;;;;;;;;;;;17.06;64.42;100260.03;4933931;29;784;-69
2021/01/21 02:32:34;;;;;;;;;;;;;;;17.06;64.58;100257.41;4933633;29;1046;-69
2021/01/21 02:35:08;;;;;;;;;;;;;;;17.08;64.62;100252.91;4916359;29;1323;-69
2021/01/21 02:37:36;;;;;;;;;;;;;;;17.07;64.74;100261.72;4933440;29;1237;-69
2021/01/21 02:40:04;;;;;;;;;;;;;;;17.05;64.41;100258.34;4933048;29;744;-69
2021/01/21 02:42:41;;;;;;;;;;;;;;;17.04;64.44;100259.28;4932852;29;1273;-68
2021/01/21 02:45:08;;;;;;;;;;;;;;;17.02;64.64;100258.53;4933551;29;728;-69
2021/01/21 02:47:34;;;;;;;;;;;;;;;17.06;64.49;100257.41;4933160;29;1982;-69
2021/01/21 02:50:01;;;;;;;;;;;;;;;17.05;64.61;100259.22;4933279;29;839;-69
2021/01/21 02:52:56;;;;;;;;;;;;;;;17.05;64.47;100256.56;4933204;29;1281;-69
2021/01/21 02:55:26;;;;;;;;;;;;;;;17.02;64.81;100253.28;4924353;29;1131;-69
2021/01/21 02:58:02;;;;;;;;;;;;;;;17.05;64.79;100253.09;4932526;29;1281;-69
2021/01/21 03:00:30;;;;;;;;;;;;;;;16.99;64.84;100248.19;4915560;29;838;-69
2021/01/21 03:02:58;;;;;;;;;;;;;;;17.01;64.56;100241.03;4915425;29;1397;-69
2021/01/21 03:05:27;;;;;;;;;;;;;;;17.00;64.86;100239.34;4932706;29;1190;-70
2021/01/21 03:07:54;;;;;;;;;;;;;;;16.99;64.82;100248.19;4932842;29;1918;-69
2021/01/21 03:10:21;;;;;;;;;;;;;;;16.98;64.75;100247.31;4932883;29;1077;-70
2021/01/21 03:12:56;;;;;;;;;;;;;;;16.97;64.78;100245.63;4931305;29;1269;-70
2021/01/21 03:15:22;;;;;;;;;;;;;;;17.00;64.63;100244.59;4931182;29;765;-69
2021/01/21 03:17:49;;;;;;;;;;;;;;;17.00;64.53;100245.44;4932701;29;1290;-68
2021/01/21 03:20:16;;;;;;;;;;;;;;;17.00;64.68;100239.34;4932782;29;840;-68
2021/01/21 03:22:42;;;;;;;;;;;;;;;16.97;64.51;100234.25;4932186;29;1373;-69
2021/01/21 03:25:09;;;;;;;;;;;;;;;16.93;64.85;100233.59;4932350;29;952;-69
2021/01/21 03:27:36;;;;;;;;;;;;;;;16.95;64.56;100236.97;4915456;29;2019;-69
2021/01/21 03:30:03;;;;;;;;;;;;;;;16.96;64.67;100232.56;4932485;29;1085;-70
2021/01/21 03:32:29;;;;;;;;;;;;;;;16.96;64.67;100235.19;4915195;29;1358;-70
2021/01/21 03:34:56;;;;;;;;;;;;;;;16.94;64.81;100241.38;4932271;29;973;-70
2021/01/21 03:37:23;;;;;;;;;;;;;;;16.96;64.72;100246.59;4915176;29;1277;-70
2021/01/21 03:39:49;;;;;;;;;;;;;;;16.94;64.73;100238.75;4915111;29;1253;-70
2021/01/21 03:42:15;;;;;;;;;;;;;;;16.94;64.73;100246.66;4932052;29;1163;-70
2021/01/21 03:44:41;;;;;;;;;;;;;;;16.98;64.52;100243.84;4931895;29;1085;-70
2021/01/21 03:47:07;;;;;;;;;;;;;;;16.94;64.64;100251.91;4932355;29;2021;-70
2021/01/21 03:49:34;;;;;;;;;;;;;;;16.93;64.62;100255.47;4931561;29;1301;-70
2021/01/21 03:52:01;;;;;;;;;;;;;;;16.95;64.83;100263.28;4932039;29;955;-70
2021/01/21 03:54:28;;;;;;;;;;;;;;;16.97;64.58;100253.50;4931931;29;1296;-70
2021/01/21 03:56:55;;;;;;;;;;;;;;;16.97;64.60;100266.66;4931993;29;1140;-69
2021/01/21 03:59:21;;;;;;;;;;;;;;;16.92;64.64;100256.44;4932018;29;1300;-69
2021/01/21 04:01:47;;;;;;;;;;;;;;;16.91;64.71;100257.34;4914253;29;1301;-69
2021/01/21 04:04:14;;;;;;;;;;;;;;;16.95;64.70;100268.56;4931893;29;1273;-69
2021/01/21 04:06:41;;;;;;;;;;;;;;;16.94;64.61;100261.59;4931801;29;1914;-70
2021/01/21 04:09:07;;;;;;;;;;;;;;;16.91;64.94;100257.34;4932014;29;1333;-69
2021/01/21 04:11:34;;;;;;;;;;;;;;;16.89;64.87;100251.34;4931978;29;787;-69
2021/01/21 04:14:00;;;;;;;;;;;;;;;16.90;64.83;100249.56;4930753;29;1289;-69
2021/01/21 04:16:30;;;;;;;;;;;;;;;16.88;64.96;100252.25;4931883;29;756;-70
2021/01/21 04:18:56;;;;;;;;;;;;;;;16.90;64.97;100253.00;4931121;29;1306;-69
2021/01/21 04:21:22;;;;;;;;;;;;;;;16.89;64.88;100253.97;4931378;29;792;-70
2021/01/21 04:23:51;;;;;;;;;;;;;;;16.89;65.15;100242.59;4931972;29;1286;-69
2021/01/21 04:26:17;;;;;;;;;;;;;;;16.88;64.83;100249.63;4930225;29;827;-69
2021/01/21 04:28:44;;;;;;;;;;;;;;;16.90;64.75;100260.91;4914106;29;1914;-69
2021/01/21 04:31:10;;;;;;;;;;;;;;;16.88;64.85;100254.91;4931265;29;831;-69
2021/01/21 04:33:36;;;;;;;;;;;;;;;16.86;64.99;100248.88;4931640;29;1299;-69
2021/01/21 04:36:03;;;;;;;;;;;;;;;16.86;64.81;100243.63;4931005;29;745;-69
2021/01/21 04:38:29;;;;;;;;;;;;;;;16.88;64.77;100252.25;4931145;29;1285;-70
2021/01/21 04:40:56;;;;;;;;;;;;;;;16.88;64.78;100249.63;4931194;29;836;-68
2021/01/21 04:43:22;;;;;;;;;;;;;;;16.86;64.66;100246.25;4930859;29;1309;-68
2021/01/21 04:45:48;;;;;;;;;;;;;;;16.86;64.82;100248.88;4930777;29;768;-69
2021/01/21 04:48:15;;;;;;;;;;;;;;;16.86;64.75;100250.66;4931533;29;1982;-69
2021/01/21 04:50:42;;;;;;;;;;;;;;;16.86;65.00;100248.88;4914225;29;1521;-70
2021/01/21 04:53:11;;;;;;;;;;;;;;;16.86;64.93;100253.28;4931295;29;1253;-69
2021/01/21 04:55:42;;;;;;;;;;;;;;;16.86;64.75;100259.41;4931146;29;839;-69
2021/01/21 04:58:22;;;;;;;;;;;;;;;16.84;64.98;100266.50;4914005;29;1481;-70
2021/01/21 05:00:48;;;;;;;;;;;;;;;16.86;64.92;100263.81;4914062;29;1362;-71
2021/01/21 05:03:15;;;;;;;;;;;;;;;16.87;64.68;100273.41;4931382;29;1293;-70
2021/01/21 05:05:41;;;;;;;;;;;;;;;16.86;64.66;100263.81;4930985;29;854;-70
2021/01/21 05:08:24;;;;;;;;;;;;;;;16.86;64.70;100272.56;4931212;29;1994;-69
2021/01/21 05:10:51;;;;;;;;;;;;;;;16.82;64.55;100273.66;4930043;29;802;-70
2021/01/21 05:13:18;;;;;;;;;;;;;;;16.83;64.51;100275.38;4931214;29;1374;-70
2021/01/21 05:15:44;;;;;;;;;;;;;;;16.83;64.63;100278.00;4931209;29;796;-69
2021/01/21 05:18:14;;;;;;;;;;;;;;;16.84;64.69;100277.03;4931304;29;1357;-69
2021/01/21 05:20:41;;;;;;;;;;;;;;;16.82;64.63;100276.28;4930994;29;851;-69
2021/01/21 05:23:07;;;;;;;;;;;;;;;16.82;64.56;100284.19;4931443;29;1287;-70
2021/01/21 05:25:33;;;;;;;;;;;;;;;16.81;64.60;100285.09;4934105;29;1092;-68
2021/01/21 05:28:03;;;;;;;;;;;;;;;16.83;64.49;100291.16;4934302;29;1914;-69
2021/01/21 05:30:30;;;;;;;;;;;;;;;16.85;64.66;100283.16;4934664;29;886;-69
2021/01/21 05:33:00;;;;;;;;;;;;;;;16.83;64.67;100285.03;4934583;29;1265;-69
2021/01/21 05:35:27;;;;;;;;;;;;;;;16.81;64.65;100285.09;4934378;29;799;-70
2021/01/21 05:37:56;;;;;;;;;;;;;;;16.81;64.78;100277.22;4934595;29;1347;-70
2021/01/21 05:40:23;;;;;;;;;;;;;;;16.83;64.63;100280.63;4932961;29;847;-69
2021/01/21 05:42:53;;;;;;;;;;;;;;;16.82;64.86;100284.19;4934532;29;1341;-68
2021/01/21 05:45:21;;;;;;;;;;;;;;;16.79;64.70;100281.72;4917346;29;934;-69
2021/01/21 05:47:54;;;;;;;;;;;;;;;16.79;64.75;100289.59;4916646;29;1911;-69
2021/01/21 05:50:21;;;;;;;;;;;;;;;16.81;64.57;100286.91;4917024;29;1217;-68
2021/01/21 05:52:48;;;;;;;;;;;;;;;16.82;64.61;100281.53;4933966;29;1360;-69
2021/01/21 05:55:14;;;;;;;;;;;;;;;16.81;64.54;100279.84;4934298;29;1124;-70
2021/01/21 05:57:41;;;;;;;;;;;;;;;16.82;64.79;100284.19;4934221;29;1278;-70
2021/01/21 06:00:08;;;;;;;;;;;;;;;16.80;64.72;100288.69;4934276;29;800;-70
2021/01/21 06:02:34;;;;;;;;;;;;;;;16.80;64.50;100288.69;4917151;29;1492;-70
2021/01/21 06:05:02;;;;;;;;;;;;;;;16.78;64.64;100290.53;4934291;29;771;-70
2021/01/21 06:07:33;;;;;;;;;;;;;;;16.79;64.58;100292.25;4933968;29;1981;-70
2021/01/21 06:09:59;;;;;;;;;;;;;;;16.77;64.80;100296.75;4932546;29;1211;-69
2021/01/21 06:12:27;;;;;;;;;;;;;;;16.78;64.85;100290.53;4933801;29;1285;-69
2021/01/21 06:15:03;;;;;;;;;;;;;;;16.80;64.66;100293.94;4933868;29;879;-70
2021/01/21 06:17:30;;;;;;;;;;;;;;;16.82;64.84;100314.88;4933904;29;1340;-70
2021/01/21 06:19:56;;;;;;;;;;;;;;;16.83;64.50;100306.94;4933645;29;1076;-68
2021/01/21 06:22:27;;;;;;;;;;;;;;;16.94;64.75;100314.19;4933584;29;1257;-68
2021/01/21 06:24:55;;;;;;;;;;;;;;;17.02;64.06;100319.06;4933729;29;878;-69
2021/01/21 06:27:22;;;;;;;;;;;;;;;17.06;63.74;100328.44;4915808;29;1999;-69
2021/01/21 06:29:49;;;;;;;;;;;;;;;17.07;63.39;100338.06;4916346;29;1214;-69
2021/01/21 06:32:17;;;;;;;;;;;;;;;17.08;63.47;100347.66;4933407;29;1160;-69
2021/01/21 06:34:43;;;;;;;;;;;;;;;17.10;63.72;100345.78;4933119;29;769;-73
2021/01/21 06:37:14;;;;;;;;;;;;;;;17.21;64.01;100346.00;4932934;29;1130;-74
2021/01/21 06:39:53;;;;;;;;;;;;;;;17.22;63.12;100355.59;4916001;29;1156;-75
2021/01/21 06:42:29;;;;;;;;;;;;;;;17.22;63.39;100351.19;4933220;29;1366;-75
2021/01/21 06:44:56;;;;;;;;;;;;;;;17.22;62.93;100347.72;4932573;29;835;-73
2021/01/21 06:47:23;;;;;;;;;;;;;;;17.24;63.05;100346.69;4933328;29;1978;-71
2021/01/21 06:49:57;;;;;;;;;;;;;;;17.24;63.69;100351.09;4931685;29;827;-72
2021/01/21 06:52:24;;;;;;;;;;;;;;;17.26;63.56;100351.88;4933057;29;1359;-70
2021/01/21 06:54:51;;;;;;;;;;;;;;;17.39;63.65;100340.53;4915398;29;804;-63
2021/01/21 06:57:36;;;;;;;;;;;;;;;17.56;63.31;100342.25;4933699;29;1269;-73
2021/01/21 07:00:08;;;;;;;;;;;;;;;17.53;63.65;100339.75;4932867;29;827;-74
2021/01/21 07:02:38;;;;;;;;;;;;;;;17.46;62.08;100344.53;4915864;29;1257;-74
2021/01/21 07:05:12;;;;;;;;;;;;;;;17.35;62.43;100349.56;4931311;29;1335;-70
2021/01/21 07:07:55;;;;;;;;;;;;;;;17.30;62.54;100353.38;4931053;29;1973;-73
2021/01/21 07:10:21;;;;;;;;;;;;;;;17.27;62.70;100345.66;4915945;29;831;-72
2021/01/21 07:12:48;;;;;;;;;;;;;;;17.28;62.67;100352.63;4932788;29;1285;-72
2021/01/21 07:15:15;;;;;;;;;;;;;;;17.27;62.80;100356.19;4932884;29;1127;-72
2021/01/21 07:17:42;;;;;;;;;;;;;;;17.39;63.90;100350.22;4932434;29;1265;-73
2021/01/21 07:20:09;;;;;;;;;;;;;;;17.45;63.88;100363.03;4932243;29;762;-73
2021/01/21 07:22:42;;;;;;;;;;;;;;;17.43;63.56;100375.44;4932408;29;1261;-73
2021/01/21 07:25:16;;;;;;;;;;;;;;;17.39;62.57;100364.25;4931053;29;1685;-74
2021/01/21 07:27:47;;;;;;;;;;;;;;;17.42;64.31;100373.75;4932443;29;1919;-74
2021/01/21 07:30:22;;;;;;;;;;;;;;;17.50;64.25;100371.53;4923342;28;1554;-70
2021/01/21 07:32:48;;;;;;;;;;;;;;;17.43;63.32;100357.03;4950661;29;1265;-71
2021/01/21 07:35:30;;;;;;;;;;;;;;;17.46;62.83;100355.06;4935378;29;943;-70
2021/01/21 07:37:57;;;;;;;;;;;;;;;17.43;63.50;100370.19;4946192;28;1733;-69
2021/01/21 07:40:42;;;;;;;;;;;;;;;17.37;62.48;100365.28;4936789;28;1043;-65
2021/01/21 07:43:09;;;;;;;;;;;;;;;17.34;62.42;100366.28;4948208;29;1300;-67
2021/01/21 07:45:36;;;;;;;;;;;;;;;17.36;62.89;100368.81;4946134;28;1055;-67
2021/01/21 07:48:21;;;;;;;;;;;;;;;17.36;62.65;100374.94;4930650;29;1903;-65
2021/01/21 07:50:47;;;;;;;;;;;;;;;17.40;63.82;100378.25;4933624;28;1058;-71
2021/01/21 07:53:24;;;;;;;;;;;;;;;17.45;63.93;100369.16;4932342;29;1321;-68
2021/01/21 07:55:51;;;;;;;;;;;;;;;17.59;64.36;100380.72;4947073;29;1173;-68
2021/01/21 07:58:39;;;;;;;;;;;;;;;17.65;63.44;100390.91;4949361;28;1339;-69
2021/01/21 08:01:06;;;;;;;;;;;;;;;17.62;63.88;100389.31;4949029;28;1113;-71
2021/01/21 08:03:34;;;;;;;;;;;;;;;17.62;63.90;100386.66;4950865;28;1340;-69
2021/01/21 08:06:11;;;;;;;;;;;;;;;17.61;63.95;100390.22;4951356;28;1056;-68
2021/01/21 08:08:47;;;;;;;;;;;;;;;17.63;63.21;100398.88;4945396;28;1914;-71
2021/01/21 08:11:14;;;;;;;;;;;;;;;17.71;62.70;100399.31;4930835;29;1284;-70
2021/01/21 08:13:41;;;;;;;;;;;;;;;17.80;62.67;100400.56;4933180;28;1356;-71
2021/01/21 08:16:11;;;;;;;;;;;;;;;17.84;62.46;100402.91;4949184;28;1204;-69
2021/01/21 08:18:38;;;;;;;;;;;;;;;17.85;62.66;100409.88;4947116;29;1257;-70
2021/01/21 08:21:20;;;;;;;;;;;;;;;17.89;62.40;100414.03;4930647;29;816;-69
2021/01/21 08:23:59;;;;;;;;;;;;;;;17.94;62.44;100411.13;4934535;28;1300;-70
2021/01/21 08:26:29;;;;;;;;;;;;;;;17.97;62.36;100414.44;4949461;28;945;-68
2021/01/21 08:28:56;;;;;;;;;;;;;;;17.99;62.45;100419.63;4932804;29;1982;-69
2021/01/21 08:31:38;;;;;;;;;;;;;;;18.05;62.70;100415.78;4925309;29;843;-70
2021/01/21 08:34:06;;;;;;;;;;;;;;;18.09;62.01;100412.03;4930011;29;1293;-73
2021/01/21 08:36:33;;;;;;;;;;;;;;;18.10;62.09;100405.81;4931754;29;1057;-72
2021/01/21 08:39:02;;;;;;;;;;;;;;;18.11;62.49;100405.72;4949266;28;1367;-66
2021/01/21 08:41:30;;;;;;;;;;;;;;;18.16;62.55;100410.72;4957750;28;1155;-67
2021/01/21 08:44:00;;;;;;;;;;;;;;;18.26;61.91;100419.78;4958974;28;1281;-67
2021/01/21 08:46:27;;;;;;;;;;;;;;;18.23;62.04;100422.59;4931136;29;1279;-67
2021/01/21 08:48:54;;;;;;;;;;;;;;;18.19;62.21;100429.84;4949031;28;1977;-67
2021/01/21 08:51:26;;;;;;;;;;;;;;;18.19;62.02;100423.72;4949103;28;800;-68
2021/01/21 08:53:52;;;;;;;;;;;;;;;18.20;62.02;100433.31;4948687;28;1320;-66
2021/01/21 08:56:18;;;;;;;;;;;;;;;18.17;62.27;100434.34;4931461;29;706;-67
2021/01/21 08:58:45;;;;;;;;;;;;;;;18.17;62.05;100438.78;4952800;28;1371;-66
2021/01/21 09:01:12;;;;;;;;;;;;;;;18.16;61.99;100437.06;4933568;29;851;-66
2021/01/21 09:03:47;;;;;;;;;;;;;;;18.15;62.21;100441.50;4933377;29;1281;-65
2021/01/21 09:06:15;;;;;;;;;;;;;;;18.16;61.88;100431.78;4933581;29;1085;-66
2021/01/21 09:08:45;;;;;;;;;;;;;;;18.19;62.02;100426.34;4918612;28;1907;-67
2021/01/21 09:11:44;;;;;;;;;;;;;;;18.17;62.03;100434.34;4935751;29;705;-67
2021/01/21 09:14:16;;;;;;;;;;;;;;;18.15;62.16;100432.75;4919720;28;1278;-68
2021/01/21 09:16:46;;;;;;;;;;;;;;;18.14;61.91;100438.97;4952018;29;1055;-67
2021/01/21 09:19:25;;;;;;;;;;;;;;;18.14;62.13;100442.44;4934650;29;1234;-66
2021/01/21 09:22:00;;;;;;;;;;;;;;;18.11;62.28;100436.50;4935214;29;1109;-67
2021/01/21 09:24:27;;;;;;;;;;;;;;;18.14;62.15;100453.00;4951870;28;1218;-69
2021/01/21 09:27:14;;;;;;;;;;;;;;;18.15;62.31;100451.22;4934676;29;1393;-66
2021/01/21 09:29:46;;;;;;;;;;;;;;;18.19;61.80;100442.16;4952168;28;1526;-69
2021/01/21 09:32:14;;;;;;;;;;;;;;;18.17;61.84;100444.06;4957117;28;1242;-65
2021/01/21 09:34:50;;;;;;;;;;;;;;;18.18;62.31;100451.03;4956696;28;1281;-67
2021/01/21 09:37:17;;;;;;;;;;;;;;;18.17;61.83;100452.81;4952399;29;1131;-63
2021/01/21 09:39:43;;;;;;;;;;;;;;;18.14;62.11;100457.41;4962874;28;1074;-65
2021/01/21 09:42:09;;;;;;;;;;;;;;;18.10;61.98;100446.19;4970937;28;1127;-64
2021/01/21 09:44:36;;;;;;;;;;;;;;;18.10;62.15;100461.16;4950132;29;1296;-67
2021/01/21 09:47:03;;;;;;;;;;;;;;;18.07;62.06;100438.47;4934679;29;1165;-68
2021/01/21 09:49:30;;;;;;;;;;;;;;;18.06;62.21;100438.53;4961020;28;1898;-68
2021/01/21 09:51:56;;;;;;;;;;;;;;;18.07;62.55;100448.16;4970596;28;1001;-68
2021/01/21 09:54:22;;;;;;;;;;;;;;;18.08;62.28;100447.22;4936680;29;1225;-67
2021/01/21 09:56:51;;;;;;;;;;;;;;;18.06;62.48;100457.00;4931947;29;1063;-68
2021/01/21 09:59:17;;;;;;;;;;;;;;;18.05;62.12;100455.31;4932570;29;1210;-67
2021/01/21 10:01:43;;;;;;;;;;;;;;;18.05;62.18;100457.94;4932561;29;1058;-66
2021/01/21 10:04:10;;;;;;;;;;;;;;;18.03;62.19;100466.78;4931338;29;1226;-66
2021/01/21 10:06:36;;;;;;;;;;;;;;;18.05;62.20;100460.59;4933005;29;747;-65
2021/01/21 10:09:02;;;;;;;;;;;;;;;18.04;62.28;100449.19;4932272;29;1978;-65
2021/01/21 10:11:29;;;;;;;;;;;;;;;18.11;62.11;100457.59;4930517;29;870;-66
2021/01/21 10:14:16;;;;;;;;;;;;;;;18.07;62.13;100461.34;4911147;29;1313;-65
2021/01/21 10:16:42;;;;;;;;;;;;;;;18.04;62.14;100475.53;4931848;29;1065;-65
2021/01/21 10:19:09;;;;;;;;;;;;;;;18.03;62.07;100469.41;4933607;29;1392;-65
2021/01/21 10:21:37;;;;;;;;;;;;;;;18.02;61.98;100472.97;4948554;28;1579;-67
2021/01/21 10:24:03;;;;;;;;;;;;;;;18.01;62.22;100473.94;4933332;28;1494;-66
2021/01/21 10:26:30;;;;;;;;;;;;;;;18.00;62.36;100469.59;4940559;29;1517;-66
2021/01/21 10:28:56;;;;;;;;;;;;;;;17.97;62.37;100467.16;4950402;28;1907;-66
2021/01/21 10:31:22;;;;;;;;;;;;;;;17.99;62.40;100459.97;4937186;29;1583;-66
2021/01/21 10:33:48;;;;;;;;;;;;;;;18.02;61.98;100462.44;4959551;28;1347;-65
2021/01/21 10:36:15;;;;;;;;;;;;;;;17.99;62.42;100462.63;4914815;29;1226;-66
2021/01/21 10:38:41;;;;;;;;;;;;;;;17.97;62.59;100476.84;4933341;28;1444;-67
2021/01/21 10:41:08;;;;;;;;;;;;;;;17.96;62.68;100462.78;4933433;29;1230;-66
2021/01/21 10:43:35;;;;;;;;;;;;;;;17.97;62.16;100451.31;4950679;28;1367;-66
2021/01/21 10:46:02;;;;;;;;;;;;;;;17.98;62.33;100449.56;4942155;29;1212;-68
2021/01/21 10:48:28;;;;;;;;;;;;;;;17.97;62.54;100445.19;4932502;28;1906;-69
2021/01/21 10:50:55;;;;;;;;;;;;;;;17.95;62.63;100440.03;4950178;28;776;-66
2021/01/21 10:53:21;;;;;;;;;;;;;;;17.94;62.52;100443.59;4950320;28;1278;-67
2021/01/21 10:55:47;;;;;;;;;;;;;;;17.95;62.38;100433.91;4945808;28;1563;-66
2021/01/21 10:58:14;;;;;;;;;;;;;;;17.95;62.38;100423.38;4931157;29;1277;-66
2021/01/21 11:00:41;;;;;;;;;;;;;;;17.98;62.61;100426.69;4949090;28;1024;-67
2021/01/21 11:03:07;;;;;;;;;;;;;;;18.00;62.23;100424.78;4950898;29;1289;-67
2021/01/21 11:05:33;;;;;;;;;;;;;;;17.99;62.61;100412.53;4950380;28;995;-64
2021/01/21 11:08:00;;;;;;;;;;;;;;;17.99;62.48;100412.53;4950376;28;1977;-67
2021/01/21 11:10:26;;;;;;;;;;;;;;;17.97;62.54;100397.78;4933347;29;1132;-67
2021/01/21 11:12:53;;;;;;;;;;;;;;;17.96;62.45;100396.91;4950498;29;1261;-65
2021/01/21 11:15:19;;;;;;;;;;;;;;;17.95;62.69;100405.78;4949828;28;1124;-68
2021/01/21 11:17:46;;;;;;;;;;;;;;;17.94;62.52;100411.13;4949868;29;1285;-64
2021/01/21 11:20:13;;;;;;;;;;;;;;;17.92;62.55;100405.97;4950158;28;756;-66
2021/01/21 11:22:40;;;;;;;;;;;;;;;17.94;62.76;100408.50;4949844;28;1284;-66
2021/01/21 11:25:10;;;;;;;;;;;;;;;17.94;62.71;100401.44;4949819;28;987;-67
2021/01/21 11:27:56;;;;;;;;;;;;;;;17.92;62.67;100395.41;4949129;29;1910;-64
2021/01/21 11:30:23;;;;;;;;;;;;;;;17.91;62.78;100391.06;4944123;28;1357;-65
2021/01/21 11:32:49;;;;;;;;;;;;;;;17.92;62.59;100391.94;4951267;28;1379;-67
2021/01/21 11:35:16;;;;;;;;;;;;;;;17.93;62.80;100383.91;4932755;29;1129;-66
2021/01/21 11:37:43;;;;;;;;;;;;;;;17.92;62.60;100390.16;4949396;28;1295;-66
2021/01/21 11:40:09;;;;;;;;;;;;;;;17.95;62.94;100386.47;4949300;28;1019;-68
2021/01/21 11:42:35;;;;;;;;;;;;;;;17.97;62.59;100376.69;4948683;29;1352;-69
2021/01/21 11:45:05;;;;;;;;;;;;;;;18.00;62.10;100373.88;4948727;28;1125;-68
2021/01/21 11:47:32;;;;;;;;;;;;;;;17.99;62.25;100365.09;4930262;29;2276;-67
2021/01/21 11:50:00;;;;;;;;;;;;;;;17.98;62.23;100367.84;4955075;28;1012;-67
2021/01/21 11:52:28;;;;;;;;;;;;;;;18.05;62.49;100369.19;4969267;28;1238;-67
2021/01/21 11:54:54;;;;;;;;;;;;;;;18.02;62.56;100372.00;4939016;29;1367;-69
2021/01/21 11:57:20;;;;;;;;;;;;;;;18.03;62.27;100365.78;4948018;28;1286;-70
2021/01/21 11:59:59;;;;;;;;;;;;;;;17.98;62.38;100355.53;4949033;28;991;-66
2021/01/21 12:02:27;;;;;;;;;;;;;;;17.98;62.55;100359.94;4948736;29;1380;-67
2021/01/21 12:04:54;;;;;;;;;;;;;;;17.95;62.62;100368.88;4948765;28;896;-65
2021/01/21 12:07:20;;;;;;;;;;;;;;;17.94;62.57;100355.78;4931588;29;1234;-65
2021/01/21 12:09:46;;;;;;;;;;;;;;;17.92;62.63;100353.25;4948842;28;1972;-67
2021/01/21 12:12:12;;;;;;;;;;;;;;;17.94;62.45;100356.63;4931805;29;1039;-69
2021/01/21 12:14:39;;;;;;;;;;;;;;;17.94;62.50;100348.72;4959046;28;1372;-66
2021/01/21 12:17:06;;;;;;;;;;;;;;;17.96;62.37;100354.75;4968267;28;1090;-68
2021/01/21 12:19:33;;;;;;;;;;;;;;;17.94;62.37;100350.50;4951268;28;1289;-67
2021/01/21 12:21:59;;;;;;;;;;;;;;;18.02;62.10;100341.19;4951589;28;1045;-70
2021/01/21 12:24:26;;;;;;;;;;;;;;;18.04;62.16;100333.22;4944539;29;1576;-65
2021/01/21 12:26:52;;;;;;;;;;;;;;;18.03;61.23;100335.00;4949155;28;1061;-66
2021/01/21 12:29:19;;;;;;;;;;;;;;;18.11;61.17;100333.69;4948701;28;1926;-66
2021/01/21 12:31:45;;;;;;;;;;;;;;;18.02;62.10;100338.56;4950148;28;1670;-66
2021/01/21 12:34:12;;;;;;;;;;;;;;;17.97;61.55;100310.81;4969345;28;1249;-68
2021/01/21 12:36:41;;;;;;;;;;;;;;;18.02;60.27;100321.94;4972383;28;854;-67
2021/01/21 12:39:07;;;;;;;;;;;;;;;18.02;60.21;100320.13;4946878;28;1189;-68
2021/01/21 12:41:35;;;;;;;;;;;;;;;17.98;59.69;100315.13;4954350;28;1391;-68
2021/01/21 12:44:03;;;;;;;;;;;;;;;17.94;58.95;100319.75;4938550;28;1725;-69
2021/01/21 12:46:31;;;;;;;;;;;;;;;17.89;56.84;100316.53;4958173;28;1311;-70
2021/01/21 12:48:57;;;;;;;;;;;;;;;17.90;56.93;100296.31;4953321;29;1972;-68
2021/01/21 12:51:24;;;;;;;;;;;;;;;17.92;58.27;100297.91;4935280;29;1468;-66
2021/01/21 12:53:53;;;;;;;;;;;;;;;17.91;56.89;100288.31;4952915;29;1324;-67
2021/01/21 12:56:21;;;;;;;;;;;;;;;17.92;55.89;100284.75;4951144;28;753;-67